Phoenix, Arizona
Current Conditions -  °F | °C
As of 7:51 PM on Thursday 27 Nov 2014 (Local Time) from KPHX Reporting Station
Few Clouds Few Clouds  
Wind Chill: 20°   Ceiling: Unl
Heat Index: 20°   Visibility: 10mi
Dew Point: -2°   Wind: 0mph
Humidity: 23%   Direction: NA
Pressure: 30.06"   Gusts: NA
Location:  33.45°N, 112.08°W
Report Text: KPHX 280251Z 00000KT 10SM FEW250 20/M02 A3006 RMK AO2 SLP171 T02001017 53002
Loading
Personal Weather Stations






























Interactive Weather Map New forecast layout! Learn more

10-Day Weather Forecast

Advertisements
Track Severe Weather on mobile